Angleton, Texas
Current Conditions -  °F | °C
As of 9:53 AM on Friday 21 Nov 2014 (Local Time) from KLBX Reporting Station
Overcast Overcast  
Wind Chill: 68°   Ceiling: 5000
Heat Index: 68°   Visibility: 10mi
Dew Point: 65°   Wind: 12mph
Humidity: 90%   Direction: 150°SSE
Pressure: 30.15"   Gusts: NA
Location:  29.16°N, 95.43°W
Report Text: KLBX 211553Z AUTO 15010KT 10SM BKN050 OVC080 20/18 A3015 RMK AO2 RAE10 SLP209 P0002 T02000183
Loading
Personal Weather Stations






























Interactive Weather Map New forecast layout! Learn more

10-Day Weather Forecast

Advertisements
Track Severe Weather on mobile